sensor_id;sensor_type;location;lat;lon;timestamp;pressure;altitude;pressure_sealevel;temperature;humidity
24762;BME280;12865;51.934;10.330;2023-05-11T00:02:31;98925.81;;;13.10;100.00
24762;BME280;12865;51.934;10.330;2023-05-11T00:05:16;98926.63;;;13.11;100.00
24762;BME280;12865;51.934;10.330;2023-05-11T00:08:02;98933.66;;;13.12;100.00
24762;BME280;12865;51.934;10.330;2023-05-11T00:10:48;98929.16;;;13.12;100.00
24762;BME280;12865;51.934;10.330;2023-05-11T00:13:33;98929.31;;;13.11;100.00
24762;BME280;12865;51.934;10.330;2023-05-11T00:16:19;98933.53;;;13.13;100.00
24762;BME280;12865;51.934;10.330;2023-05-11T00:19:05;98929.31;;;13.11;100.00
24762;BME280;12865;51.934;10.330;2023-05-11T00:21:51;98928.72;;;13.17;100.00
24762;BME280;12865;51.934;10.330;2023-05-11T00:24:36;98928.50;;;13.10;100.00
24762;BME280;12865;51.934;10.330;2023-05-11T00:27:23;98934.50;;;13.12;100.00
24762;BME280;12865;51.934;10.330;2023-05-11T00:30:09;98926.97;;;13.08;100.00
24762;BME280;12865;51.934;10.330;2023-05-11T00:32:55;98934.00;;;13.09;100.00
24762;BME280;12865;51.934;10.330;2023-05-11T00:35:40;98922.13;;;13.03;100.00
24762;BME280;12865;51.934;10.330;2023-05-11T00:38:27;98924.63;;;13.05;100.00
24762;BME280;12865;51.934;10.330;2023-05-11T00:41:13;98925.44;;;13.05;100.00
24762;BME280;12865;51.934;10.330;2023-05-11T00:43:58;98930.81;;;13.05;100.00
24762;BME280;12865;51.934;10.330;2023-05-11T00:46:44;98923.13;;;13.02;100.00
24762;BME280;12865;51.934;10.330;2023-05-11T00:49:30;98923.13;;;13.02;100.00
24762;BME280;12865;51.934;10.330;2023-05-11T00:52:15;98929.47;;;13.01;100.00
24762;BME280;12865;51.934;10.330;2023-05-11T00:55:01;98920.75;;;12.99;100.00
24762;BME280;12865;51.934;10.330;2023-05-11T00:57:47;98922.75;;;12.97;100.00
24762;BME280;12865;51.934;10.330;2023-05-11T01:00:32;98925.28;;;12.98;100.00
24762;BME280;12865;51.934;10.330;2023-05-11T01:03:18;98926.44;;;13.04;100.00
24762;BME280;12865;51.934;10.330;2023-05-11T01:06:09;98921.25;;;12.94;100.00
24762;BME280;12865;51.934;10.330;2023-05-11T01:09:02;98923.78;;;12.96;100.00
24762;BME280;12865;51.934;10.330;2023-05-11T01:11:53;98925.41;;;12.97;100.00
24762;BME280;12865;51.934;10.330;2023-05-11T01:14:53;98928.94;;;12.89;100.00
24762;BME280;12865;51.934;10.330;2023-05-11T01:17:48;98921.72;;;12.90;100.00
24762;BME280;12865;51.934;10.330;2023-05-11T01:20:37;98930.06;;;12.79;100.00
24762;BME280;12865;51.934;10.330;2023-05-11T01:23:59;98930.16;;;12.69;100.00
24762;BME280;12865;51.934;10.330;2023-05-11T01:27:17;98928.09;;;12.55;100.00
24762;BME280;12865;51.934;10.330;2023-05-11T01:30:25;98930.75;;;12.55;100.00
24762;BME280;12865;51.934;10.330;2023-05-11T01:33:13;98930.41;;;12.50;100.00
24762;BME280;12865;51.934;10.330;2023-05-11T01:36:06;98931.59;;;12.55;100.00
24762;BME280;12865;51.934;10.330;2023-05-11T01:38:57;98927.44;;;12.53;100.00
24762;BME280;12865;51.934;10.330;2023-05-11T01:41:50;98930.09;;;12.53;100.00
24762;BME280;12865;51.934;10.330;2023-05-11T01:44:39;98932.94;;;12.51;100.00
24762;BME280;12865;51.934;10.330;2023-05-11T01:47:27;98923.75;;;12.54;100.00
24762;BME280;12865;51.934;10.330;2023-05-11T01:50:15;98937.63;;;12.57;100.00
24762;BME280;12865;51.934;10.330;2023-05-11T01:53:02;98933.63;;;12.62;100.00
24762;BME280;12865;51.934;10.330;2023-05-11T01:55:49;98937.69;;;12.66;100.00
24762;BME280;12865;51.934;10.330;2023-05-11T01:58:37;98940.03;;;12.69;100.00
24762;BME280;12865;51.934;10.330;2023-05-11T02:01:24;98934.66;;;12.69;100.00
24762;BME280;12865;51.934;10.330;2023-05-11T02:04:11;98930.00;;;12.71;100.00
24762;BME280;12865;51.934;10.330;2023-05-11T02:06:59;98933.22;;;12.74;100.00
24762;BME280;12865;51.934;10.330;2023-05-11T02:09:46;98927.53;;;12.77;100.00
24762;BME280;12865;51.934;10.330;2023-05-11T02:12:34;98937.72;;;12.74;100.00
24762;BME280;12865;51.934;10.330;2023-05-11T02:15:22;98941.06;;;12.76;100.00
24762;BME280;12865;51.934;10.330;2023-05-11T02:18:11;98945.41;;;12.77;100.00
24762;BME280;12865;51.934;10.330;2023-05-11T02:20:58;98933.88;;;12.76;100.00
24762;BME280;12865;51.934;10.330;2023-05-11T02:23:46;98940.34;;;12.66;100.00
24762;BME280;12865;51.934;10.330;2023-05-11T02:26:33;98932.44;;;12.56;100.00
24762;BME280;12865;51.934;10.330;2023-05-11T02:29:18;98935.44;;;12.53;100.00
24762;BME280;12865;51.934;10.330;2023-05-11T02:32:08;98940.78;;;12.53;100.00
24762;BME280;12865;51.934;10.330;2023-05-11T02:34:59;98936.44;;;12.52;100.00
24762;BME280;12865;51.934;10.330;2023-05-11T02:37:47;98938.97;;;12.53;100.00
24762;BME280;12865;51.934;10.330;2023-05-11T02:40:42;98939.97;;;12.52;100.00
24762;BME280;12865;51.934;10.330;2023-05-11T02:43:33;98936.75;;;12.49;100.00
24762;BME280;12865;51.934;10.330;2023-05-11T02:46:24;98943.91;;;12.40;100.00
24762;BME280;12865;51.934;10.330;2023-05-11T02:49:11;98945.19;;;12.36;100.00
24762;BME280;12865;51.934;10.330;2023-05-11T02:51:58;98943.22;;;12.38;100.00
24762;BME280;12865;51.934;10.330;2023-05-11T02:54:47;98954.41;;;12.42;100.00
24762;BME280;12865;51.934;10.330;2023-05-11T02:57:34;98945.25;;;12.44;100.00
24762;BME280;12865;51.934;10.330;2023-05-11T03:00:20;98946.28;;;12.51;100.00
24762;BME280;12865;51.934;10.330;2023-05-11T03:03:06;98945.97;;;12.54;100.00
24762;BME280;12865;51.934;10.330;2023-05-11T03:05:52;98946.81;;;12.55;100.00
24762;BME280;12865;51.934;10.330;2023-05-11T03:08:37;98948.34;;;12.57;100.00
24762;BME280;12865;51.934;10.330;2023-05-11T03:11:24;98947.81;;;12.54;100.00
24762;BME280;12865;51.934;10.330;2023-05-11T03:14:10;98946.44;;;12.50;100.00
24762;BME280;12865;51.934;10.330;2023-05-11T03:16:56;98945.94;;;12.46;100.00
24762;BME280;12865;51.934;10.330;2023-05-11T03:19:42;98944.78;;;12.49;100.00
24762;BME280;12865;51.934;10.330;2023-05-11T03:22:28;98941.78;;;12.52;100.00
24762;BME280;12865;51.934;10.330;2023-05-11T03:25:16;98952.34;;;12.53;100.00
24762;BME280;12865;51.934;10.330;2023-05-11T03:28:03;98955.66;;;12.55;100.00
24762;BME280;12865;51.934;10.330;2023-05-11T03:30:51;98947.34;;;12.58;100.00
24762;BME280;12865;51.934;10.330;2023-05-11T03:33:37;98949.19;;;12.58;100.00
24762;BME280;12865;51.934;10.330;2023-05-11T03:36:24;98947.50;;;12.57;100.00
24762;BME280;12865;51.934;10.330;2023-05-11T03:39:11;98942.16;;;12.57;100.00
24762;BME280;12865;51.934;10.330;2023-05-11T03:41:58;98942.28;;;12.55;100.00
24762;BME280;12865;51.934;10.330;2023-05-11T03:44:45;98943.97;;;12.56;100.00
24762;BME280;12865;51.934;10.330;2023-05-11T03:47:34;98939.63;;;12.55;100.00
24762;BME280;12865;51.934;10.330;2023-05-11T03:50:20;98943.28;;;12.54;100.00
24762;BME280;12865;51.934;10.330;2023-05-11T03:53:06;98940.63;;;12.54;100.00
24762;BME280;12865;51.934;10.330;2023-05-11T03:55:52;98935.97;;;12.56;100.00
24762;BME280;12865;51.934;10.330;2023-05-11T03:58:39;98936.78;;;12.57;100.00
24762;BME280;12865;51.934;10.330;2023-05-11T04:01:25;98933.97;;;12.58;100.00
24762;BME280;12865;51.934;10.330;2023-05-11T04:04:11;98935.50;;;12.61;100.00
24762;BME280;12865;51.934;10.330;2023-05-11T04:06:57;98937.16;;;12.62;100.00
24762;BME280;12865;51.934;10.330;2023-05-11T04:09:43;98935.31;;;12.63;100.00
24762;BME280;12865;51.934;10.330;2023-05-11T04:12:29;98937.69;;;12.66;100.00
24762;BME280;12865;51.934;10.330;2023-05-11T04:15:14;98934.16;;;12.65;100.00
24762;BME280;12865;51.934;10.330;2023-05-11T04:18:00;98941.19;;;12.66;100.00
24762;BME280;12865;51.934;10.330;2023-05-11T04:20:46;98939.22;;;12.68;100.00
24762;BME280;12865;51.934;10.330;2023-05-11T04:23:31;98936.34;;;12.70;100.00
24762;BME280;12865;51.934;10.330;2023-05-11T04:26:17;98941.69;;;12.70;100.00
24762;BME280;12865;51.934;10.330;2023-05-11T04:29:03;98941.53;;;12.71;100.00
24762;BME280;12865;51.934;10.330;2023-05-11T04:31:49;98935.88;;;12.74;100.00
24762;BME280;12865;51.934;10.330;2023-05-11T04:34:36;98936.53;;;12.76;100.00
24762;BME280;12865;51.934;10.330;2023-05-11T04:37:22;98939.41;;;12.75;100.00
24762;BME280;12865;51.934;10.330;2023-05-11T04:40:08;98935.41;;;12.79;100.00
24762;BME280;12865;51.934;10.330;2023-05-11T04:42:54;98947.63;;;12.81;100.00
24762;BME280;12865;51.934;10.330;2023-05-11T04:45:39;98942.94;;;12.83;100.00
24762;BME280;12865;51.934;10.330;2023-05-11T04:48:25;98942.78;;;12.85;100.00
24762;BME280;12865;51.934;10.330;2023-05-11T04:51:11;98947.13;;;12.86;100.00
24762;BME280;12865;51.934;10.330;2023-05-11T04:53:57;98950.50;;;12.88;100.00
24762;BME280;12865;51.934;10.330;2023-05-11T04:56:43;98956.34;;;12.91;100.00
24762;BME280;12865;51.934;10.330;2023-05-11T04:59:28;98947.47;;;12.91;100.00
24762;BME280;12865;51.934;10.330;2023-05-11T05:02:14;98949.84;;;12.94;100.00
24762;BME280;12865;51.934;10.330;2023-05-11T05:05:00;98956.53;;;12.98;100.00
24762;BME280;12865;51.934;10.330;2023-05-11T05:07:46;98956.22;;;13.01;100.00
24762;BME280;12865;51.934;10.330;2023-05-11T05:10:32;98953.41;;;13.03;100.00
24762;BME280;12865;51.934;10.330;2023-05-11T05:13:17;98949.03;;;13.02;100.00
24762;BME280;12865;51.934;10.330;2023-05-11T05:16:03;98952.38;;;13.04;100.00
24762;BME280;12865;51.934;10.330;2023-05-11T05:18:49;98955.38;;;13.01;100.00
24762;BME280;12865;51.934;10.330;2023-05-11T05:21:35;98961.94;;;13.06;100.00
24762;BME280;12865;51.934;10.330;2023-05-11T05:24:20;98961.25;;;13.04;100.00
24762;BME280;12865;51.934;10.330;2023-05-11T05:27:06;98951.91;;;13.08;100.00
24762;BME280;12865;51.934;10.330;2023-05-11T05:29:52;98956.41;;;13.08;100.00
24762;BME280;12865;51.934;10.330;2023-05-11T05:32:37;98965.13;;;13.10;100.00
24762;BME280;12865;51.934;10.330;2023-05-11T05:35:23;98959.47;;;13.13;100.00
24762;BME280;12865;51.934;10.330;2023-05-11T05:38:09;98962.84;;;13.15;100.00
24762;BME280;12865;51.934;10.330;2023-05-11T05:40:54;98966.34;;;13.15;100.00
24762;BME280;12865;51.934;10.330;2023-05-11T05:43:40;98971.00;;;13.13;100.00
24762;BME280;12865;51.934;10.330;2023-05-11T05:46:26;98970.19;;;13.13;100.00
24762;BME280;12865;51.934;10.330;2023-05-11T05:49:12;98969.72;;;13.17;100.00
24762;BME280;12865;51.934;10.330;2023-05-11T05:51:57;98966.19;;;13.17;100.00
24762;BME280;12865;51.934;10.330;2023-05-11T05:54:43;98970.72;;;13.16;100.00
24762;BME280;12865;51.934;10.330;2023-05-11T05:57:29;98972.38;;;13.17;100.00
24762;BME280;12865;51.934;10.330;2023-05-11T06:00:15;98971.72;;;13.23;100.00
24762;BME280;12865;51.934;10.330;2023-05-11T06:03:01;98965.53;;;13.23;100.00
24762;BME280;12865;51.934;10.330;2023-05-11T06:05:47;98973.06;;;13.27;100.00
24762;BME280;12865;51.934;10.330;2023-05-11T06:08:32;98973.91;;;13.28;100.00
24762;BME280;12865;51.934;10.330;2023-05-11T06:11:18;98973.91;;;13.28;100.00
24762;BME280;12865;51.934;10.330;2023-05-11T06:14:04;98981.44;;;13.32;100.00
24762;BME280;12865;51.934;10.330;2023-05-11T06:16:50;98980.81;;;13.39;100.00
24762;BME280;12865;51.934;10.330;2023-05-11T06:19:36;98984.69;;;13.44;100.00
24762;BME280;12865;51.934;10.330;2023-05-11T06:22:22;98977.81;;;13.50;100.00
24762;BME280;12865;51.934;10.330;2023-05-11T06:25:08;98980.69;;;13.56;100.00
24762;BME280;12865;51.934;10.330;2023-05-11T06:27:54;98978.84;;;13.57;100.00
24762;BME280;12865;51.934;10.330;2023-05-11T06:30:40;98976.00;;;13.58;100.00
24762;BME280;12865;51.934;10.330;2023-05-11T06:33:25;98974.50;;;13.64;100.00
24762;BME280;12865;51.934;10.330;2023-05-11T06:36:11;98971.16;;;13.70;100.00
24762;BME280;12865;51.934;10.330;2023-05-11T06:38:57;98976.19;;;13.65;100.00
24762;BME280;12865;51.934;10.330;2023-05-11T06:41:42;98978.50;;;13.68;100.00
24762;BME280;12865;51.934;10.330;2023-05-11T06:44:29;98975.16;;;13.74;100.00
24762;BME280;12865;51.934;10.330;2023-05-11T06:47:14;98974.84;;;13.77;100.00
24762;BME280;12865;51.934;10.330;2023-05-11T06:50:00;98975.19;;;13.82;100.00
24762;BME280;12865;51.934;10.330;2023-05-11T06:52:46;98977.19;;;13.88;100.00
24762;BME280;12865;51.934;10.330;2023-05-11T06:55:31;98979.38;;;13.93;100.00
24762;BME280;12865;51.934;10.330;2023-05-11T06:58:17;98978.03;;;13.97;100.00
24762;BME280;12865;51.934;10.330;2023-05-11T07:01:04;98973.66;;;13.96;100.00
24762;BME280;12865;51.934;10.330;2023-05-11T07:03:54;98976.38;;;14.12;100.00
24762;BME280;12865;51.934;10.330;2023-05-11T07:06:40;98976.88;;;14.07;100.00
24762;BME280;12865;51.934;10.330;2023-05-11T07:09:26;98975.03;;;14.08;100.00
24762;BME280;12865;51.934;10.330;2023-05-11T07:12:11;98969.31;;;14.11;100.00
24762;BME280;12865;51.934;10.330;2023-05-11T07:14:57;98977.72;;;14.08;100.00
24762;BME280;12865;51.934;10.330;2023-05-11T07:17:43;98981.03;;;14.10;100.00
24762;BME280;12865;51.934;10.330;2023-05-11T07:20:31;98977.03;;;14.14;100.00
24762;BME280;12865;51.934;10.330;2023-05-11T07:23:17;98977.22;;;14.12;100.00
24762;BME280;12865;51.934;10.330;2023-05-11T07:26:03;98985.25;;;14.21;100.00
24762;BME280;12865;51.934;10.330;2023-05-11T07:28:53;98980.03;;;14.11;100.00
24762;BME280;12865;51.934;10.330;2023-05-11T07:31:39;98979.88;;;14.12;100.00
24762;BME280;12865;51.934;10.330;2023-05-11T07:34:24;98981.72;;;14.20;100.00
24762;BME280;12865;51.934;10.330;2023-05-11T07:37:10;98981.56;;;14.13;100.00
24762;BME280;12865;51.934;10.330;2023-05-11T07:39:56;98987.09;;;14.20;100.00
24762;BME280;12865;51.934;10.330;2023-05-11T07:42:42;98987.94;;;14.04;100.00
24762;BME280;12865;51.934;10.330;2023-05-11T07:45:28;98983.25;;;14.14;100.00
24762;BME280;12865;51.934;10.330;2023-05-11T07:48:13;98978.88;;;14.13;100.00
24762;BME280;12865;51.934;10.330;2023-05-11T07:50:59;98993.44;;;14.03;100.00
24762;BME280;12865;51.934;10.330;2023-05-11T07:53:46;98994.66;;;14.08;100.00
24762;BME280;12865;51.934;10.330;2023-05-11T07:56:31;98988.94;;;14.03;100.00
24762;BME280;12865;51.934;10.330;2023-05-11T07:59:17;98983.56;;;14.03;100.00
24762;BME280;12865;51.934;10.330;2023-05-11T08:02:04;98993.63;;;14.18;100.00
24762;BME280;12865;51.934;10.330;2023-05-11T08:04:50;98996.28;;;14.09;100.00
24762;BME280;12865;51.934;10.330;2023-05-11T08:07:36;98987.59;;;14.07;100.00
24762;BME280;12865;51.934;10.330;2023-05-11T08:10:22;98986.56;;;14.16;100.00
24762;BME280;12865;51.934;10.330;2023-05-11T08:13:07;98988.09;;;14.27;100.00
24762;BME280;12865;51.934;10.330;2023-05-11T08:15:53;98991.28;;;14.14;100.00
24762;BME280;12865;51.934;10.330;2023-05-11T08:18:39;98986.94;;;14.13;100.00
24762;BME280;12865;51.934;10.330;2023-05-11T08:21:24;98996.97;;;14.11;100.00
24762;BME280;12865;51.934;10.330;2023-05-11T08:24:11;98992.44;;;14.36;100.00
24762;BME280;12865;51.934;10.330;2023-05-11T08:26:56;98989.78;;;14.20;100.00
24762;BME280;12865;51.934;10.330;2023-05-11T08:29:42;98991.97;;;14.08;100.00
24762;BME280;12865;51.934;10.330;2023-05-11T08:32:28;98998.31;;;14.07;100.00
24762;BME280;12865;51.934;10.330;2023-05-11T08:35:14;98991.94;;;14.25;100.00
24762;BME280;12865;51.934;10.330;2023-05-11T08:38:00;98992.63;;;14.19;100.00
24762;BME280;12865;51.934;10.330;2023-05-11T08:40:46;98992.09;;;14.23;100.00
24762;BME280;12865;51.934;10.330;2023-05-11T08:43:34;99000.34;;;14.22;100.00
24762;BME280;12865;51.934;10.330;2023-05-11T08:46:22;98994.28;;;14.20;100.00
24762;BME280;12865;51.934;10.330;2023-05-11T08:49:08;98999.97;;;14.33;100.00
24762;BME280;12865;51.934;10.330;2023-05-11T08:51:54;98996.13;;;14.27;100.00
24762;BME280;12865;51.934;10.330;2023-05-11T08:54:40;99001.34;;;14.21;100.00
24762;BME280;12865;51.934;10.330;2023-05-11T08:57:28;98993.63;;;14.18;100.00
24762;BME280;12865;51.934;10.330;2023-05-11T09:00:16;98996.66;;;14.23;100.00
24762;BME280;12865;51.934;10.330;2023-05-11T09:03:02;98992.09;;;14.23;100.00
24762;BME280;12865;51.934;10.330;2023-05-11T09:05:48;98995.13;;;14.44;100.00
24762;BME280;12865;51.934;10.330;2023-05-11T09:08:36;98998.63;;;14.37;100.00
24762;BME280;12865;51.934;10.330;2023-05-11T09:11:22;98989.59;;;14.54;100.00
24762;BME280;12865;51.934;10.330;2023-05-11T09:14:11;99000.84;;;14.49;100.00
24762;BME280;12865;51.934;10.330;2023-05-11T09:16:57;98994.28;;;14.52;100.00
24762;BME280;12865;51.934;10.330;2023-05-11T09:20:03;98998.66;;;14.45;100.00
24762;BME280;12865;51.934;10.330;2023-05-11T09:22:50;98991.28;;;14.47;100.00
24762;BME280;12865;51.934;10.330;2023-05-11T09:25:37;98991.28;;;14.55;100.00
24762;BME280;12865;51.934;10.330;2023-05-11T09:28:24;98993.09;;;14.63;100.00
24762;BME280;12865;51.934;10.330;2023-05-11T09:31:10;98993.25;;;14.69;100.00
24762;BME280;12865;51.934;10.330;2023-05-11T09:34:20;98992.59;;;14.59;100.00
24762;BME280;12865;51.934;10.330;2023-05-11T09:37:15;98995.09;;;14.61;100.00
24762;BME280;12865;51.934;10.330;2023-05-11T09:40:01;98985.41;;;14.51;100.00
24762;BME280;12865;51.934;10.330;2023-05-11T09:42:46;98984.72;;;14.58;100.00
24762;BME280;12865;51.934;10.330;2023-05-11T09:45:43;98992.25;;;14.62;100.00
24762;BME280;12865;51.934;10.330;2023-05-11T09:48:30;98997.78;;;14.69;100.00
24762;BME280;12865;51.934;10.330;2023-05-11T09:51:27;98986.16;;;14.84;100.00
24762;BME280;12865;51.934;10.330;2023-05-11T09:54:16;98997.94;;;14.75;100.00
24762;BME280;12865;51.934;10.330;2023-05-11T09:57:02;98983.78;;;14.89;100.00
24762;BME280;12865;51.934;10.330;2023-05-11T09:59:49;98993.56;;;14.82;100.00
24762;BME280;12865;51.934;10.330;2023-05-11T10:02:35;98992.06;;;14.72;100.00
24762;BME280;12865;51.934;10.330;2023-05-11T10:05:20;98991.88;;;14.73;100.00
24762;BME280;12865;51.934;10.330;2023-05-11T10:08:06;98994.91;;;14.78;100.00
24762;BME280;12865;51.934;10.330;2023-05-11T10:10:53;98990.22;;;14.72;100.00
24762;BME280;12865;51.934;10.330;2023-05-11T10:13:42;98988.56;;;14.63;100.00
24762;BME280;12865;51.934;10.330;2023-05-11T10:16:28;98988.44;;;14.57;100.00
24762;BME280;12865;51.934;10.330;2023-05-11T10:19:14;98992.56;;;14.67;100.00
24762;BME280;12865;51.934;10.330;2023-05-11T10:22:01;98986.69;;;14.72;100.00
24762;BME280;12865;51.934;10.330;2023-05-11T10:24:47;98984.22;;;14.54;100.00
24762;BME280;12865;51.934;10.330;2023-05-11T10:27:32;98981.81;;;14.75;100.00
24762;BME280;12865;51.934;10.330;2023-05-11T10:30:18;98983.22;;;14.55;100.00
24762;BME280;12865;51.934;10.330;2023-05-11T10:33:05;98981.22;;;14.49;100.00
24762;BME280;12865;51.934;10.330;2023-05-11T10:35:51;98977.03;;;14.46;100.00
24762;BME280;12865;51.934;10.330;2023-05-11T10:38:37;98976.19;;;14.38;100.00
24762;BME280;12865;51.934;10.330;2023-05-11T10:54:44;98977.53;;;14.50;100.00
24762;BME280;12865;51.934;10.330;2023-05-11T11:03:40;98977.88;;;14.47;100.00
24762;BME280;12865;51.934;10.330;2023-05-11T11:06:25;98978.72;;;14.39;100.00
24762;BME280;12865;51.934;10.330;2023-05-11T11:09:14;98984.56;;;14.35;100.00
24762;BME280;12865;51.934;10.330;2023-05-11T11:12:08;98978.03;;;14.29;100.00
24762;BME280;12865;51.934;10.330;2023-05-11T11:15:04;98981.56;;;14.46;100.00
24762;BME280;12865;51.934;10.330;2023-05-11T11:21:05;98979.03;;;14.36;100.00
24762;BME280;12865;51.934;10.330;2023-05-11T11:23:51;98975.69;;;14.26;100.00
24762;BME280;12865;51.934;10.330;2023-05-11T11:26:48;98977.38;;;14.27;100.00
24762;BME280;12865;51.934;10.330;2023-05-11T11:29:35;98979.72;;;14.38;100.00
24762;BME280;12865;51.934;10.330;2023-05-11T11:38:24;98971.25;;;14.74;100.00
24762;BME280;12865;51.934;10.330;2023-05-11T11:41:10;98972.06;;;14.82;100.00
24762;BME280;12865;51.934;10.330;2023-05-11T11:43:57;98972.06;;;14.82;100.00
24762;BME280;12865;51.934;10.330;2023-05-11T11:46:43;98972.22;;;14.89;100.00
24762;BME280;12865;51.934;10.330;2023-05-11T11:49:30;98970.66;;;15.03;100.00
24762;BME280;12865;51.934;10.330;2023-05-11T11:52:33;98973.97;;;15.13;100.00
24762;BME280;12865;51.934;10.330;2023-05-11T11:55:46;98971.19;;;15.29;100.00
24762;BME280;12865;51.934;10.330;2023-05-11T12:01:27;98974.00;;;15.75;100.00
24762;BME280;12865;51.934;10.330;2023-05-11T12:04:24;98970.47;;;15.97;100.00
24762;BME280;12865;51.934;10.330;2023-05-11T12:07:18;98957.38;;;15.94;100.00
24762;BME280;12865;51.934;10.330;2023-05-11T12:10:04;98962.66;;;16.25;100.00
24762;BME280;12865;51.934;10.330;2023-05-11T12:12:50;98965.25;;;16.18;100.00
24762;BME280;12865;51.934;10.330;2023-05-11T12:15:39;98961.72;;;16.18;100.00
24762;BME280;12865;51.934;10.330;2023-05-11T12:18:25;98955.06;;;16.28;100.00
24762;BME280;12865;51.934;10.330;2023-05-11T12:21:21;98963.06;;;16.36;100.00
24762;BME280;12865;51.934;10.330;2023-05-11T12:24:07;98960.63;;;16.41;100.00
24762;BME280;12865;51.934;10.330;2023-05-11T12:26:56;98966.59;;;16.52;100.00
24762;BME280;12865;51.934;10.330;2023-05-11T12:29:41;98964.50;;;16.62;100.00
24762;BME280;12865;51.934;10.330;2023-05-11T12:32:30;98956.81;;;16.73;100.00
24762;BME280;12865;51.934;10.330;2023-05-11T12:35:24;98956.06;;;16.65;100.00
24762;BME280;12865;51.934;10.330;2023-05-11T12:38:10;98953.38;;;16.79;100.00
24762;BME280;12865;51.934;10.330;2023-05-11T12:40:56;98958.59;;;16.96;100.00
24762;BME280;12865;51.934;10.330;2023-05-11T12:43:42;98959.69;;;16.86;100.00
24762;BME280;12865;51.934;10.330;2023-05-11T12:46:27;98951.72;;;16.78;100.00
24762;BME280;12865;51.934;10.330;2023-05-11T12:49:21;98953.28;;;16.87;100.00
24762;BME280;12865;51.934;10.330;2023-05-11T12:52:08;98951.53;;;16.65;100.00
24762;BME280;12865;51.934;10.330;2023-05-11T12:54:54;98948.75;;;16.73;100.00
24762;BME280;12865;51.934;10.330;2023-05-11T12:57:43;98944.72;;;16.69;100.00
24762;BME280;12865;51.934;10.330;2023-05-11T13:00:29;98943.44;;;16.80;100.00
24762;BME280;12865;51.934;10.330;2023-05-11T13:03:23;98948.44;;;16.83;100.00
24762;BME280;12865;51.934;10.330;2023-05-11T13:06:12;98946.16;;;16.80;100.00
24762;BME280;12865;51.934;10.330;2023-05-11T13:08:58;98949.69;;;16.80;100.00
24762;BME280;12865;51.934;10.330;2023-05-11T13:11:43;98946.16;;;16.80;100.00
24762;BME280;12865;51.934;10.330;2023-05-11T13:14:30;98944.72;;;16.84;100.00
24762;BME280;12865;51.934;10.330;2023-05-11T13:17:29;98947.81;;;16.96;100.00
24762;BME280;12865;51.934;10.330;2023-05-11T13:23:06;98946.31;;;16.93;100.00
24762;BME280;12865;51.934;10.330;2023-05-11T13:25:52;98946.69;;;16.90;100.00
24762;BME280;12865;51.934;10.330;2023-05-11T13:28:38;98941.41;;;16.82;100.00
24762;BME280;12865;51.934;10.330;2023-05-11T13:31:24;98943.34;;;16.88;100.00
24762;BME280;12865;51.934;10.330;2023-05-11T13:34:10;98941.41;;;16.82;100.00
24762;BME280;12865;51.934;10.330;2023-05-11T13:36:56;98940.84;;;16.72;100.00
24762;BME280;12865;51.934;10.330;2023-05-11T13:39:41;98935.91;;;16.75;100.00
24762;BME280;12865;51.934;10.330;2023-05-11T13:42:27;98941.28;;;16.75;100.00
24762;BME280;12865;51.934;10.330;2023-05-11T13:45:13;98933.97;;;16.84;100.00
24762;BME280;12865;51.934;10.330;2023-05-11T13:47:59;98937.31;;;16.86;100.00
24762;BME280;12865;51.934;10.330;2023-05-11T13:50:45;98932.47;;;16.96;100.00
24762;BME280;12865;51.934;10.330;2023-05-11T13:53:30;98925.19;;;17.11;100.00
24762;BME280;12865;51.934;10.330;2023-05-11T13:56:16;98921.31;;;17.14;100.00
24762;BME280;12865;51.934;10.330;2023-05-11T13:59:04;98930.00;;;17.31;100.00
24762;BME280;12865;51.934;10.330;2023-05-11T14:01:49;98925.03;;;17.49;100.00
24762;BME280;12865;51.934;10.330;2023-05-11T14:04:35;98915.66;;;17.45;100.00
24762;BME280;12865;51.934;10.330;2023-05-11T14:07:20;98918.97;;;17.47;100.00
24762;BME280;12865;51.934;10.330;2023-05-11T14:10:07;98924.28;;;17.76;100.00
24762;BME280;12865;51.934;10.330;2023-05-11T14:12:52;98911.34;;;17.86;100.00
24762;BME280;12865;51.934;10.330;2023-05-11T14:15:38;98912.66;;;17.76;100.00
24762;BME280;12865;51.934;10.330;2023-05-11T14:18:24;98902.78;;;17.83;100.00
24762;BME280;12865;51.934;10.330;2023-05-11T14:21:10;98906.19;;;18.19;100.00
24762;BME280;12865;51.934;10.330;2023-05-11T14:23:56;98899.41;;;18.30;100.00
24762;BME280;12865;51.934;10.330;2023-05-11T14:26:42;98898.75;;;18.21;100.00
24762;BME280;12865;51.934;10.330;2023-05-11T14:29:28;98910.25;;;18.36;100.00
24762;BME280;12865;51.934;10.330;2023-05-11T14:32:13;98908.94;;;18.26;100.00
24762;BME280;12865;51.934;10.330;2023-05-11T14:34:59;98908.06;;;18.19;100.00
24762;BME280;12865;51.934;10.330;2023-05-11T14:37:45;98909.72;;;18.20;100.00
24762;BME280;12865;51.934;10.330;2023-05-11T14:40:31;98904.72;;;18.17;100.00
24762;BME280;12865;51.934;10.330;2023-05-11T14:43:17;98903.69;;;18.18;100.00
24762;BME280;12865;51.934;10.330;2023-05-11T14:46:02;98908.81;;;18.34;100.00
24762;BME280;12865;51.934;10.330;2023-05-11T14:48:48;98903.31;;;18.49;100.00
24762;BME280;12865;51.934;10.330;2023-05-11T14:51:34;98918.72;;;18.27;100.00
24762;BME280;12865;51.934;10.330;2023-05-11T14:54:20;98903.97;;;18.29;100.00
24762;BME280;12865;51.934;10.330;2023-05-11T14:57:05;98916.06;;;18.33;100.00
24762;BME280;12865;51.934;10.330;2023-05-11T14:59:51;98908.25;;;18.45;100.00